Time;durP1;ratioP1;P1;durP2;ratioP2;P2;SDS_P1;SDS_P2;PMS_P1;PMS_P2;Temp;Humidity;BMP_temperature;BMP_pressure;BME280_temperature;BME280_humidity;BME280_pressure;Samples;Min_cycle;Max_cycle;Signal;HPM_P1;HPM_P2
2023/02/01 00:00:08;;;;;;;21.93;13.10;;;0.00;99.90;;;;;;4161520;28;20271;-64
2023/02/01 00:02:09;;;;;;;24.07;12.70;;;0.00;99.90;;;;;;4144455;28;20292;-63
2023/02/01 00:04:11;;;;;;;22.33;14.23;;;-0.10;99.90;;;;;;4161834;28;20336;-65
2023/02/01 00:06:12;;;;;;;30.03;14.80;;;-0.10;99.90;;;;;;4160782;28;20274;-64
2023/02/01 00:08:13;;;;;;;21.20;13.07;;;0.00;99.90;;;;;;4163090;28;20715;-65
2023/02/01 00:10:15;;;;;;;23.00;11.93;;;-0.10;99.90;;;;;;4161339;28;20266;-67
2023/02/01 00:12:16;;;;;;;15.77;7.97;;;-0.20;99.90;;;;;;4162066;28;20270;-63
2023/02/01 00:14:17;;;;;;;20.53;9.43;;;-0.20;99.90;;;;;;4161749;28;20321;-68
2023/02/01 00:16:24;;;;;;;18.10;8.73;;;-0.20;99.90;;;;;;4162762;28;20616;-67
2023/02/01 00:18:25;;;;;;;19.40;8.70;;;-0.20;99.90;;;;;;4160251;28;20282;-63
2023/02/01 00:20:27;;;;;;;16.03;7.63;;;-0.30;99.90;;;;;;4162461;28;20251;-62
2023/02/01 00:22:28;;;;;;;17.00;8.07;;;-0.30;99.90;;;;;;4161421;28;20294;-63
2023/02/01 00:24:29;;;;;;;15.87;8.03;;;-0.30;99.90;;;;;;4162694;28;20634;-66
2023/02/01 00:26:36;;;;;;;18.60;8.00;;;-0.30;99.90;;;;;;4161344;28;20324;-63
2023/02/01 00:28:37;;;;;;;15.97;7.70;;;-0.30;99.90;;;;;;4161583;28;20267;-65
2023/02/01 00:30:38;;;;;;;16.73;7.80;;;-0.40;99.90;;;;;;4161131;28;20345;-63
2023/02/01 00:32:39;;;;;;;16.73;8.60;;;-0.40;99.90;;;;;;4158178;28;20286;-67
2023/02/01 00:34:40;;;;;;;19.40;8.80;;;-0.40;99.90;;;;;;4155857;28;20262;-65
2023/02/01 00:36:43;;;;;;;22.33;10.10;;;-0.50;99.90;;;;;;4159359;28;20274;-69
2023/02/01 00:38:44;;;;;;;16.93;8.43;;;-0.50;99.90;;;;;;4157722;28;20639;-69
2023/02/01 00:40:45;;;;;;;13.80;7.73;;;-0.60;99.90;;;;;;4144533;28;20295;-70
2023/02/01 00:42:46;;;;;;;15.77;8.37;;;-0.60;99.90;;;;;;4157286;28;20274;-64
2023/02/01 00:44:47;;;;;;;18.33;9.53;;;-0.60;99.90;;;;;;4157514;28;20276;-67
2023/02/01 00:46:49;;;;;;;22.10;10.63;;;-0.70;99.90;;;;;;4145707;28;20290;-64
2023/02/01 00:48:50;;;;;;;20.20;10.23;;;-0.70;99.90;;;;;;4155947;28;20275;-64
2023/02/01 00:50:51;;;;;;;22.07;9.47;;;-0.70;99.90;;;;;;4162318;28;20255;-64
2023/02/01 00:52:52;;;;;;;22.97;10.20;;;-0.70;99.90;;;;;;4160444;28;20275;-63
2023/02/01 00:54:53;;;;;;;19.83;9.43;;;-0.70;99.90;;;;;;4162082;28;20255;-64
2023/02/01 00:56:54;;;;;;;16.23;8.67;;;-0.80;99.90;;;;;;4161000;28;20622;-65
2023/02/01 00:58:56;;;;;;;17.17;8.60;;;-0.80;99.90;;;;;;4161570;28;20325;-64
2023/02/01 01:01:20;;;;;;;16.43;8.77;;;-0.90;99.90;;;;;;4160904;28;20317;-64
2023/02/01 01:03:21;;;;;;;16.87;8.80;;;-0.80;99.90;;;;;;4162164;28;20266;-69
2023/02/01 01:05:22;;;;;;;18.87;9.20;;;-0.90;99.90;;;;;;4160909;28;20321;-65
2023/02/01 01:07:23;;;;;;;17.70;9.40;;;-0.90;99.90;;;;;;4154573;28;20314;-64
2023/02/01 01:09:24;;;;;;;17.43;9.07;;;-0.90;99.90;;;;;;4144326;28;20267;-65
2023/02/01 01:11:29;;;;;;;17.63;8.40;;;-1.00;99.90;;;;;;4144745;28;20326;-61
2023/02/01 01:13:30;;;;;;;17.93;8.37;;;-1.10;99.90;;;;;;4144022;28;20272;-64
2023/02/01 01:15:31;;;;;;;18.57;8.17;;;-1.10;99.90;;;;;;4145192;28;20333;-65
2023/02/01 01:17:32;;;;;;;12.63;7.10;;;-1.10;99.90;;;;;;4144870;28;20283;-66
2023/02/01 01:19:33;;;;;;;15.93;7.10;;;-1.10;99.90;;;;;;4144562;28;20797;-63
2023/02/01 01:21:34;;;;;;;15.63;6.87;;;-1.10;99.90;;;;;;4145254;28;20287;-66
2023/02/01 01:23:36;;;;;;;13.20;7.40;;;-1.10;99.90;;;;;;4143654;28;20699;-65
2023/02/01 01:25:40;;;;;;;11.47;6.33;;;-1.10;99.90;;;;;;4144886;28;20837;-64
2023/02/01 01:27:41;;;;;;;15.73;6.67;;;-1.10;99.90;;;;;;4144407;28;20267;-66
2023/02/01 01:29:42;;;;;;;12.87;6.23;;;-1.10;99.90;;;;;;4144810;28;20283;-65
2023/02/01 01:31:43;;;;;;;12.17;6.57;;;-1.10;99.90;;;;;;4144256;28;20330;-65
2023/02/01 01:33:47;;;;;;;13.60;6.63;;;-1.10;99.90;;;;;;4127074;28;20327;-66
2023/02/01 01:35:48;;;;;;;14.77;7.43;;;-1.10;99.90;;;;;;4144419;28;20314;-64
2023/02/01 01:37:49;;;;;;;14.27;7.37;;;-1.00;99.90;;;;;;4156708;28;20685;-64
2023/02/01 01:39:50;;;;;;;19.57;8.93;;;-1.10;99.90;;;;;;4145660;28;20284;-66
2023/02/01 01:41:51;;;;;;;19.97;10.37;;;-1.10;99.90;;;;;;4144426;28;20299;-65
2023/02/01 01:44:01;;;;;;;16.53;7.57;;;-1.10;99.90;;;;;;4151049;28;20321;-63
2023/02/01 01:46:02;;;;;;;11.73;6.20;;;-1.10;99.90;;;;;;4150567;28;20275;-63
2023/02/01 01:48:11;;;;;;;14.53;7.70;;;-1.10;99.90;;;;;;4148294;28;20334;-63
2023/02/01 01:50:17;;;;;;;16.87;8.43;;;-1.20;99.90;;;;;;4147564;28;20334;-68
2023/02/01 01:52:19;;;;;;;14.30;7.73;;;-1.20;99.90;;;;;;4146881;28;20786;-64
2023/02/01 01:54:26;;;;;;;22.90;10.47;;;-1.20;99.90;;;;;;4147282;28;20654;-64
2023/02/01 01:56:29;;;;;;;18.47;10.50;;;-1.30;99.90;;;;;;4147233;28;20271;-64
2023/02/01 01:58:32;;;;;;;19.97;9.67;;;-1.30;99.90;;;;;;4147749;28;20305;-71
2023/02/01 02:00:34;;;;;;;14.93;8.10;;;-1.40;99.90;;;;;;4147869;28;20271;-64
2023/02/01 02:02:38;;;;;;;17.63;9.03;;;-1.40;99.90;;;;;;4146506;28;20287;-64
2023/02/01 02:04:39;;;;;;;17.70;7.70;;;-1.40;99.90;;;;;;4148394;28;20840;-65
2023/02/01 02:07:01;;;;;;;18.23;8.80;;;-1.50;99.90;;;;;;4147256;28;20821;-64
2023/02/01 02:09:03;;;;;;;15.27;8.33;;;-1.50;99.90;;;;;;4149997;28;20263;-64
2023/02/01 02:11:04;;;;;;;11.47;6.13;;;-1.50;99.90;;;;;;4162715;28;20813;-64
2023/02/01 02:13:05;;;;;;;13.90;6.77;;;-1.50;99.90;;;;;;4164759;28;20642;-64
2023/02/01 02:15:09;;;;;;;14.13;7.10;;;-1.60;99.90;;;;;;4163663;28;20642;-63
2023/02/01 02:17:33;;;;;;;13.67;6.60;;;-1.60;99.90;;;;;;4163779;28;20713;-63
2023/02/01 02:20:05;;;;;;;12.83;6.10;;;-1.60;99.90;;;;;;4163590;28;20301;-65
2023/02/01 02:22:17;;;;;;;10.97;6.50;;;-1.60;99.90;;;;;;4163698;28;20298;-64
2023/02/01 02:24:45;;;;;;;16.03;6.33;;;-1.60;99.90;;;;;;4163694;28;20262;-63
2023/02/01 02:27:24;;;;;;;11.17;6.03;;;-1.50;99.90;;;;;;4160633;28;20293;-64
2023/02/01 02:29:38;;;;;;;14.57;7.23;;;-1.50;99.90;;;;;;4114179;28;20893;-65
2023/02/01 02:31:50;;;;;;;13.67;6.37;;;-1.50;99.90;;;;;;4162838;28;20313;-64
2023/02/01 02:34:06;;;;;;;10.43;5.60;;;-1.40;99.90;;;;;;4164441;28;20259;-64
2023/02/01 02:36:43;;;;;;;10.33;5.93;;;-1.40;99.90;;;;;;4163263;28;20259;-63
2023/02/01 02:38:50;;;;;;;13.73;6.17;;;-1.40;99.90;;;;;;4101274;28;20287;-65
2023/02/01 02:41:07;;;;;;;12.40;6.40;;;-1.30;99.90;;;;;;4146954;28;20264;-66
2023/02/01 02:47:55;;;;;;;13.33;6.60;;;-1.30;99.90;;;;;;4147781;28;20326;-64
2023/02/01 03:05:23;;;;;;;21.30;8.93;;;-1.30;99.90;;;;;;4147695;28;20372;-63
2023/02/01 03:07:58;;;;;;;16.87;7.30;;;-1.30;99.90;;;;;;4145674;28;20279;-63
2023/02/01 03:10:04;;;;;;;14.10;7.30;;;-1.30;99.90;;;;;;4147221;28;20322;-65
2023/02/01 03:14:33;;;;;;;16.00;6.83;;;-1.40;99.90;;;;;;4163058;28;20317;-64
2023/02/01 03:16:54;;;;;;;17.00;7.20;;;-1.40;99.90;;;;;;4162892;28;20271;-65
2023/02/01 03:19:21;;;;;;;15.82;6.30;;;-1.50;99.90;;;;;;4161595;28;20309;-63
2023/02/01 03:21:36;;;;;;;11.57;6.03;;;-1.50;99.90;;;;;;4155077;28;20065;-63
2023/02/01 03:23:40;;;;;;;12.63;6.73;;;-1.50;99.90;;;;;;4153786;28;20283;-64
2023/02/01 03:25:42;;;;;;;14.20;7.20;;;-1.40;99.90;;;;;;4163184;28;20661;-63
2023/02/01 03:27:53;;;;;;;12.77;7.13;;;-1.40;99.90;;;;;;4162520;28;20313;-65
2023/02/01 03:30:09;;;;;;;17.92;6.80;;;-1.40;99.90;;;;;;4162660;28;20333;-65
2023/02/01 03:32:10;;;;;;;19.17;7.93;;;-1.40;99.90;;;;;;4146153;28;20030;-65
2023/02/01 03:34:13;;;;;;;17.97;7.80;;;-1.40;99.90;;;;;;4146306;28;20264;-64
2023/02/01 03:36:16;;;;;;;26.20;11.80;;;-1.40;99.90;;;;;;4145667;28;20267;-65
2023/02/01 03:38:24;;;;;;;28.17;11.60;;;-1.40;99.90;;;;;;4145920;28;20283;-64
2023/02/01 03:40:27;;;;;;;25.30;10.37;;;-1.40;99.90;;;;;;4146495;28;20747;-64
2023/02/01 03:42:40;;;;;;;25.87;12.03;;;-1.40;99.90;;;;;;4146336;28;20667;-70
2023/02/01 03:44:57;;;;;;;21.87;10.20;;;-1.40;99.90;;;;;;4157638;28;20270;-70
2023/02/01 03:47:12;;;;;;;17.20;8.27;;;-1.50;99.90;;;;;;4162893;28;20674;-65
2023/02/01 03:49:21;;;;;;;20.37;9.33;;;-1.50;99.90;;;;;;4162085;28;20392;-68
2023/02/01 03:51:24;;;;;;;23.90;10.70;;;-1.50;99.90;;;;;;4162317;28;20666;-66
2023/02/01 03:53:26;;;;;;;24.23;10.07;;;-1.60;99.90;;;;;;4161812;28;20816;-64
2023/02/01 03:55:29;;;;;;;24.20;9.93;;;-1.60;99.90;;;;;;4161288;28;20271;-64
2023/02/01 03:57:35;;;;;;;25.63;10.53;;;-1.70;99.90;;;;;;4161782;28;20267;-70
2023/02/01 03:59:40;;;;;;;27.87;11.70;;;-1.70;99.90;;;;;;4162180;28;20274;-64
2023/02/01 04:01:42;;;;;;;26.97;14.17;;;-1.70;99.90;;;;;;4161412;28;20360;-67
2023/02/01 04:03:43;;;;;;;30.07;13.87;;;-1.70;99.90;;;;;;4161840;28;20818;-64
2023/02/01 04:05:44;;;;;;;24.37;11.37;;;-1.80;99.90;;;;;;4162123;28;20301;-68
2023/02/01 04:07:45;;;;;;;26.10;10.37;;;-1.80;99.90;;;;;;4160281;28;20263;-65
2023/02/01 04:09:46;;;;;;;22.30;8.20;;;-1.70;99.90;;;;;;4144781;28;20268;-64
2023/02/01 04:11:47;;;;;;;17.00;8.37;;;-1.80;99.90;;;;;;4160964;28;20684;-63
2023/02/01 04:13:48;;;;;;;18.93;8.53;;;-1.70;99.90;;;;;;4162888;28;20758;-64
2023/02/01 04:15:49;;;;;;;18.37;8.53;;;-1.70;99.90;;;;;;4161711;28;20792;-63
2023/02/01 04:17:50;;;;;;;22.27;9.10;;;-1.70;99.90;;;;;;4161757;28;20287;-65
2023/02/01 04:19:52;;;;;;;18.60;9.90;;;-1.70;99.90;;;;;;4152303;28;20330;-64
2023/02/01 04:21:53;;;;;;;17.13;9.03;;;-1.70;99.90;;;;;;4162101;28;20337;-67
2023/02/01 04:23:54;;;;;;;15.43;8.50;;;-1.60;99.90;;;;;;4160978;28;20290;-65
2023/02/01 04:26:00;;;;;;;14.73;8.13;;;-1.60;99.90;;;;;;4161236;28;20283;-65
2023/02/01 04:28:01;;;;;;;15.87;7.60;;;-1.50;99.90;;;;;;4161527;28;20270;-64
2023/02/01 04:30:04;;;;;;;14.60;7.30;;;-1.50;99.90;;;;;;4159933;28;20328;-64
2023/02/01 04:32:05;;;;;;;16.20;7.80;;;-1.60;99.90;;;;;;4161964;28;20785;-63
2023/02/01 04:34:06;;;;;;;16.80;8.43;;;-1.50;99.90;;;;;;4161554;28;20847;-64
2023/02/01 04:36:08;;;;;;;16.13;6.93;;;-1.50;99.90;;;;;;4162228;28;20319;-67
2023/02/01 04:38:09;;;;;;;15.83;8.47;;;-1.50;99.90;;;;;;4161310;28;20730;-66
2023/02/01 04:40:11;;;;;;;17.70;8.40;;;-1.50;99.90;;;;;;4162029;28;20279;-64
2023/02/01 04:42:12;;;;;;;17.77;8.67;;;-1.50;99.90;;;;;;4146622;28;20291;-64
2023/02/01 04:44:18;;;;;;;15.37;8.13;;;-1.50;99.90;;;;;;4145734;28;20263;-66
2023/02/01 04:46:19;;;;;;;16.27;8.27;;;-1.50;99.90;;;;;;4128032;28;20901;-65
2023/02/01 04:48:20;;;;;;;17.57;9.20;;;-1.50;99.90;;;;;;4129228;28;20342;-63
2023/02/01 04:50:23;;;;;;;18.00;8.23;;;-1.50;99.90;;;;;;4145208;28;20262;-66
2023/02/01 04:52:24;;;;;;;17.27;7.73;;;-1.40;99.90;;;;;;4156625;28;20275;-64
2023/02/01 04:54:25;;;;;;;21.47;9.47;;;-1.30;99.90;;;;;;4144001;28;20608;-64
2023/02/01 04:56:26;;;;;;;16.67;8.07;;;-1.30;99.90;;;;;;4144789;28;20322;-67
2023/02/01 04:58:27;;;;;;;19.53;8.83;;;-1.20;99.90;;;;;;4126955;28;20268;-64
2023/02/01 05:00:29;;;;;;;21.80;9.30;;;-1.20;99.90;;;;;;4144454;28;20264;-66
2023/02/01 05:02:32;;;;;;;22.67;9.67;;;-1.10;99.90;;;;;;4144841;28;20307;-63
2023/02/01 05:04:33;;;;;;;26.43;11.70;;;-1.10;99.90;;;;;;4146656;28;20267;-68
2023/02/01 05:06:34;;;;;;;23.50;11.40;;;-1.10;99.90;;;;;;4142720;28;20334;-63
2023/02/01 05:08:35;;;;;;;22.57;11.00;;;-1.00;99.90;;;;;;4146362;28;20345;-64
2023/02/01 05:10:36;;;;;;;22.87;11.83;;;-0.90;99.90;;;;;;4145461;28;20759;-63
2023/02/01 05:14:57;;;;;;;23.43;10.07;;;-0.90;99.90;;;;;;4141590;28;20333;-66
2023/02/01 05:16:58;;;;;;;21.07;11.53;;;-0.80;99.90;;;;;;4143288;28;20299;-63
2023/02/01 05:18:59;;;;;;;20.20;10.57;;;-0.80;99.90;;;;;;4143659;28;20267;-63
2023/02/01 05:21:01;;;;;;;23.20;10.93;;;-0.80;99.90;;;;;;4154942;28;20774;-64
2023/02/01 05:23:02;;;;;;;21.73;9.13;;;-0.80;99.90;;;;;;4127996;28;20668;-63
2023/02/01 05:25:04;;;;;;;17.27;9.13;;;-0.80;99.90;;;;;;4158009;28;20320;-63
2023/02/01 05:27:05;;;;;;;21.40;9.10;;;-0.80;99.90;;;;;;4160937;28;20286;-66
2023/02/01 05:29:08;;;;;;;13.87;7.67;;;-0.80;99.90;;;;;;4160476;28;20301;-64
2023/02/01 05:31:10;;;;;;;19.80;8.90;;;-0.80;99.90;;;;;;4159841;28;20274;-64
2023/02/01 05:33:11;;;;;;;17.43;9.47;;;-0.80;99.90;;;;;;4146461;28;20271;-65
2023/02/01 05:35:13;;;;;;;21.23;10.10;;;-0.80;99.90;;;;;;4144138;28;20268;-65
2023/02/01 05:37:14;;;;;;;20.97;10.00;;;-0.80;99.90;;;;;;4143737;28;20271;-64
2023/02/01 05:39:15;;;;;;;23.87;12.40;;;-0.80;99.90;;;;;;4145904;28;20326;-64
2023/02/01 05:41:16;;;;;;;40.77;19.40;;;-0.80;99.90;;;;;;4148059;28;20338;-65
2023/02/01 05:43:17;;;;;;;30.27;14.73;;;-0.80;99.90;;;;;;4143269;28;20341;-64
2023/02/01 05:45:18;;;;;;;28.50;13.63;;;-0.90;99.90;;;;;;4144552;28;20884;-63
2023/02/01 05:47:20;;;;;;;22.77;12.13;;;-0.90;99.90;;;;;;4142954;28;20271;-67
2023/02/01 05:49:21;;;;;;;21.30;10.77;;;-0.90;99.90;;;;;;4144847;28;20751;-63
2023/02/01 05:51:22;;;;;;;18.63;10.47;;;-0.90;99.90;;;;;;4142985;28;20341;-63
2023/02/01 05:53:23;;;;;;;20.27;10.90;;;-0.90;99.90;;;;;;4144681;28;20305;-64
2023/02/01 05:57:35;;;;;;;;;;;-0.80;99.90;;;;;;4495193;22;20326;-62
2023/02/01 05:59:40;;;;;;;;;;;-0.80;99.90;;;;;;4176774;28;19908;-67
2023/02/01 06:01:41;;;;;;;21.13;11.13;;;-0.80;99.90;;;;;;4177781;28;20244;-62
2023/02/01 06:03:43;;;;;;;26.47;13.67;;;-0.70;99.90;;;;;;4175496;28;20761;-62
2023/02/01 06:05:45;;;;;;;23.83;14.03;;;-0.70;99.90;;;;;;4177190;28;20282;-69
2023/02/01 06:07:46;;;;;;;32.57;17.43;;;-0.70;99.90;;;;;;4174957;28;20333;-62
2023/02/01 06:09:47;;;;;;;41.63;21.07;;;-0.70;99.90;;;;;;4176555;28;20320;-63
2023/02/01 06:11:48;;;;;;;54.77;29.17;;;-0.80;99.90;;;;;;4176315;28;20267;-63
2023/02/01 06:13:49;;;;;;;47.00;27.30;;;-0.80;99.90;;;;;;4176867;28;20262;-63
2023/02/01 06:15:51;;;;;;;29.27;17.07;;;-0.70;99.90;;;;;;4177376;28;20265;-62
2023/02/01 06:17:52;;;;;;;26.83;15.93;;;-0.70;99.90;;;;;;4176695;28;20343;-62
2023/02/01 06:19:53;;;;;;;29.40;17.10;;;-0.70;99.90;;;;;;4177449;28;20316;-62
2023/02/01 06:21:54;;;;;;;26.57;14.80;;;-0.70;99.90;;;;;;4175443;28;20262;-63
2023/02/01 06:23:57;;;;;;;24.97;14.63;;;-0.80;99.90;;;;;;4177683;28;20355;-68
2023/02/01 06:26:07;;;;;;;33.60;14.83;;;-0.90;99.90;;;;;;4175918;28;20278;-63
2023/02/01 06:28:08;;;;;;;23.02;13.55;;;-0.80;99.90;;;;;;4177193;28;20336;-62
2023/02/01 06:30:13;;;;;;;24.23;15.00;;;-0.80;99.90;;;;;;4176783;28;20029;-63
2023/02/01 06:32:14;;;;;;;26.47;14.97;;;-0.80;99.90;;;;;;4180527;28;20567;-66
2023/02/01 06:34:15;;;;;;;26.23;15.73;;;-0.70;99.90;;;;;;4179247;28;20258;-66
2023/02/01 06:36:18;;;;;;;25.10;15.63;;;-0.70;99.90;;;;;;4179831;28;20644;-62
2023/02/01 06:38:19;;;;;;;28.23;16.17;;;-0.70;99.90;;;;;;4179495;28;20312;-62
2023/02/01 06:40:20;;;;;;;74.57;46.80;;;-0.60;99.90;;;;;;4179118;28;20745;-63
2023/02/01 06:42:21;;;;;;;31.37;18.87;;;-0.60;99.90;;;;;;4178133;28;20339;-62
2023/02/01 06:44:22;;;;;;;22.97;12.87;;;-0.60;99.90;;;;;;4180013;28;20730;-69
2023/02/01 06:46:24;;;;;;;26.23;12.80;;;-0.70;99.90;;;;;;4179802;28;20796;-62
2023/02/01 06:48:25;;;;;;;26.47;13.70;;;-0.70;99.90;;;;;;4178687;28;21030;-62
2023/02/01 06:50:27;;;;;;;23.27;12.53;;;-0.70;99.90;;;;;;4179350;28;20320;-62
2023/02/01 06:52:28;;;;;;;21.73;12.43;;;-0.70;99.90;;;;;;4179365;28;20652;-68
2023/02/01 06:54:32;;;;;;;31.27;16.60;;;-0.70;99.90;;;;;;4180270;28;20672;-67
2023/02/01 06:56:33;;;;;;;25.77;13.73;;;-0.70;99.90;;;;;;4178266;28;20278;-65
2023/02/01 06:58:34;;;;;;;30.07;13.87;;;-0.70;99.90;;;;;;4179712;28;20336;-62
2023/02/01 07:00:36;;;;;;;24.17;11.87;;;-0.70;99.90;;;;;;4178904;28;20262;-62
2023/02/01 07:02:38;;;;;;;22.17;11.20;;;-0.70;99.90;;;;;;4180201;28;20281;-62
2023/02/01 07:04:39;;;;;;;31.27;13.73;;;-0.70;99.90;;;;;;4178171;28;20293;-62
2023/02/01 07:06:40;;;;;;;31.83;15.37;;;-0.70;99.90;;;;;;4180016;28;20300;-62
2023/02/01 07:08:41;;;;;;;46.83;20.67;;;-0.70;99.90;;;;;;4178726;28;20591;-63
2023/02/01 07:10:42;;;;;;;49.73;20.80;;;-0.70;99.90;;;;;;4179396;28;20282;-63
2023/02/01 07:12:43;;;;;;;43.23;19.23;;;-0.70;99.90;;;;;;4178706;28;20259;-63
2023/02/01 07:14:45;;;;;;;52.63;21.20;;;-0.70;99.90;;;;;;4179497;28;20599;-67
2023/02/01 07:16:46;;;;;;;23.43;11.87;;;-0.60;99.90;;;;;;4179167;28;20649;-64
2023/02/01 07:18:49;;;;;;;15.57;9.10;;;-0.60;99.90;;;;;;4178843;28;20266;-62
2023/02/01 07:20:51;;;;;;;136.03;44.73;;;-0.60;99.90;;;;;;4179351;28;20258;-62
2023/02/01 07:22:57;;;;;;;69.83;25.10;;;-0.50;99.90;;;;;;4178823;28;20281;-62
2023/02/01 07:24:58;;;;;;;28.27;13.07;;;-0.60;99.90;;;;;;4179817;28;20254;-62
2023/02/01 07:26:59;;;;;;;35.70;14.27;;;-0.50;99.90;;;;;;4178129;28;20274;-62
2023/02/01 07:29:00;;;;;;;28.87;11.93;;;-0.50;99.90;;;;;;4179759;28;20262;-63
2023/02/01 07:31:10;;;;;;;21.70;9.80;;;-0.50;99.90;;;;;;4178518;28;20262;-66
2023/02/01 07:33:11;;;;;;;16.00;8.80;;;-0.40;99.90;;;;;;4179818;28;20254;-63
2023/02/01 07:35:13;;;;;;;21.83;11.93;;;-0.40;99.90;;;;;;4177936;28;20075;-64
2023/02/01 07:37:15;;;;;;;17.70;10.53;;;-0.40;99.90;;;;;;4161409;28;20271;-63
2023/02/01 07:39:16;;;;;;;19.23;10.37;;;-0.40;99.90;;;;;;4178127;28;20266;-68
2023/02/01 07:41:17;;;;;;;35.50;15.67;;;-0.40;99.90;;;;;;4160457;28;20324;-65
2023/02/01 07:43:18;;;;;;;39.27;17.20;;;-0.20;99.90;;;;;;4177906;28;20339;-65
2023/02/01 07:45:20;;;;;;;30.73;13.77;;;-0.20;99.90;;;;;;4179371;28;20672;-66
2023/02/01 07:47:21;;;;;;;21.63;10.67;;;-0.10;99.90;;;;;;4177646;28;20250;-65
2023/02/01 07:49:22;;;;;;;20.30;9.03;;;-0.10;99.90;;;;;;4179052;28;20266;-69
2023/02/01 07:51:23;;;;;;;24.30;10.33;;;0.00;99.90;;;;;;4178093;28;20312;-63
2023/02/01 07:53:24;;;;;;;21.00;10.87;;;0.00;99.90;;;;;;4178698;28;20339;-63
2023/02/01 07:55:26;;;;;;;21.80;9.63;;;0.00;99.90;;;;;;4161230;28;20282;-63
2023/02/01 07:57:27;;;;;;;23.57;11.30;;;0.10;99.90;;;;;;4177929;28;20294;-63
2023/02/01 07:59:28;;;;;;;25.17;13.50;;;0.10;99.90;;;;;;4179196;28;20270;-62
2023/02/01 08:01:29;;;;;;;16.73;10.57;;;0.20;99.90;;;;;;4178075;28;20274;-64
2023/02/01 08:03:30;;;;;;;20.10;11.03;;;0.20;99.90;;;;;;4178221;28;20663;-67
2023/02/01 08:05:31;;;;;;;21.57;10.83;;;0.20;99.90;;;;;;4177945;28;20320;-62
2023/02/01 08:07:32;;;;;;;18.67;8.93;;;0.20;99.90;;;;;;4178684;28;20651;-63
2023/02/01 08:09:34;;;;;;;19.60;8.77;;;0.20;99.90;;;;;;4178072;28;20270;-63
2023/02/01 08:11:37;;;;;;;16.00;9.50;;;0.30;99.90;;;;;;4179010;28;20316;-63
2023/02/01 08:13:38;;;;;;;13.33;7.43;;;0.40;99.90;;;;;;4177918;28;20621;-68
2023/02/01 08:15:40;;;;;;;12.83;7.67;;;0.40;99.90;;;;;;4179008;28;20304;-63
2023/02/01 08:17:47;;;;;;;13.43;8.37;;;0.40;99.90;;;;;;4177159;28;20300;-64
2023/02/01 08:19:49;;;;;;;19.50;11.40;;;0.40;99.90;;;;;;4178849;28;20316;-62
2023/02/01 08:21:50;;;;;;;16.20;9.07;;;0.40;99.90;;;;;;4177987;28;20324;-64
2023/02/01 08:23:51;;;;;;;14.60;8.23;;;0.50;99.90;;;;;;4178391;28;20294;-69
2023/02/01 08:25:52;;;;;;;15.83;8.60;;;0.50;99.90;;;;;;4178265;28;20262;-62
2023/02/01 08:27:54;;;;;;;21.17;10.73;;;0.60;99.90;;;;;;4177534;28;20270;-68
2023/02/01 08:29:56;;;;;;;19.07;10.20;;;0.60;99.90;;;;;;4178462;28;20274;-62
2023/02/01 08:31:57;;;;;;;17.27;9.83;;;0.70;99.90;;;;;;4177551;28;20335;-64
2023/02/01 08:34:03;;;;;;;21.43;9.27;;;0.70;99.90;;;;;;4177737;28;20274;-62
2023/02/01 08:36:08;;;;;;;15.97;9.00;;;0.80;99.90;;;;;;4177544;28;20258;-63
2023/02/01 08:38:09;;;;;;;17.33;8.33;;;0.80;99.90;;;;;;4178677;28;20820;-69
2023/02/01 08:40:10;;;;;;;19.27;8.17;;;0.90;99.90;;;;;;4177527;28;20266;-63
2023/02/01 08:44:31;;;;;;;20.60;9.57;;;1.00;99.90;;;;;;4177248;28;20290;-62
2023/02/01 08:46:33;;;;;;;22.23;10.20;;;1.10;99.90;;;;;;4178453;28;20692;-64
2023/02/01 08:48:35;;;;;;;24.40;11.77;;;1.20;99.90;;;;;;4177430;28;20311;-67
2023/02/01 08:50:36;;;;;;;37.30;16.93;;;1.30;99.90;;;;;;4177520;28;20254;-62
2023/02/01 08:52:37;;;;;;;41.13;17.10;;;1.30;99.90;;;;;;4158825;28;20279;-62
2023/02/01 08:54:40;;;;;;;33.13;16.07;;;1.30;99.90;;;;;;4178131;28;20351;-63
2023/02/01 08:56:41;;;;;;;26.93;12.53;;;1.40;99.90;;;;;;4176975;28;20266;-62
2023/02/01 08:58:43;;;;;;;28.67;13.17;;;1.40;99.90;;;;;;4177923;28;20327;-63
2023/02/01 09:00:44;;;;;;;35.67;16.47;;;1.50;99.90;;;;;;4177239;28;20262;-62
2023/02/01 09:02:45;;;;;;;34.87;16.77;;;1.50;99.90;;;;;;4176997;28;20324;-62
2023/02/01 09:04:46;;;;;;;32.40;16.17;;;1.60;99.90;;;;;;4176373;28;20308;-66
2023/02/01 09:06:48;;;;;;;38.00;15.83;;;1.70;99.90;;;;;;4176277;28;20765;-67
2023/02/01 09:08:49;;;;;;;33.20;15.97;;;1.70;99.90;;;;;;4177282;28;20266;-67
2023/02/01 09:10:50;;;;;;;43.43;18.57;;;1.70;99.90;;;;;;4176069;28;20285;-62
2023/02/01 09:12:51;;;;;;;36.70;17.60;;;1.70;99.90;;;;;;4177913;28;20262;-62
2023/02/01 09:14:53;;;;;;;33.33;14.50;;;1.80;99.90;;;;;;4176953;28;20315;-62
2023/02/01 09:16:54;;;;;;;33.47;17.77;;;1.80;99.90;;;;;;4178195;28;20261;-63
2023/02/01 09:18:55;;;;;;;30.40;15.33;;;1.90;99.90;;;;;;4176490;28;20351;-67
2023/02/01 09:20:56;;;;;;;25.27;14.77;;;1.80;99.90;;;;;;4177114;28;20278;-64
2023/02/01 09:22:58;;;;;;;30.93;16.67;;;1.80;99.90;;;;;;4176668;28;20725;-65
2023/02/01 09:24:59;;;;;;;39.93;21.20;;;1.90;99.90;;;;;;4159952;28;20259;-63
2023/02/01 09:27:00;;;;;;;32.97;16.37;;;2.00;99.90;;;;;;4176107;28;20335;-64
2023/02/01 09:29:01;;;;;;;26.00;15.50;;;2.10;99.90;;;;;;4159191;28;20686;-68
2023/02/01 09:31:03;;;;;;;21.67;12.53;;;2.20;99.90;;;;;;4176210;28;20332;-63
2023/02/01 09:33:04;;;;;;;31.53;17.13;;;2.40;99.90;;;;;;4177005;28;20277;-64
2023/02/01 09:35:06;;;;;;;33.87;17.67;;;2.50;99.90;;;;;;4176390;28;20320;-66
2023/02/01 09:37:07;;;;;;;26.93;13.83;;;2.70;99.90;;;;;;4176060;28;20270;-66
2023/02/01 09:39:08;;;;;;;37.50;22.13;;;2.90;99.90;;;;;;4177238;28;20324;-63
2023/02/01 09:41:39;;;;;;;39.97;20.70;;;2.90;99.90;;;;;;4175496;28;20340;-63
2023/02/01 09:44:07;;;;;;;36.53;20.67;;;2.90;99.90;;;;;;4177249;28;20339;-66
2023/02/01 09:46:18;;;;;;;51.30;25.63;;;3.10;99.90;;;;;;4159033;28;20329;-64
2023/02/01 09:48:21;;;;;;;;;;;3.10;99.90;;;;;;4158994;28;20255;-68
2023/02/01 09:50:34;;;;;;;61.83;29.77;;;3.10;99.90;;;;;;4177107;28;19904;-63
2023/02/01 09:52:48;;;;;;;59.67;26.63;;;3.20;99.90;;;;;;4176321;28;20653;-63
2023/02/01 09:55:00;;;;;;;67.03;30.83;;;3.30;99.90;;;;;;4176533;28;20329;-62
2023/02/01 09:57:19;;;;;;;63.27;27.83;;;3.50;99.90;;;;;;4176081;28;20323;-63
2023/02/01 09:59:40;;;;;;;73.40;32.57;;;3.60;99.90;;;;;;4177379;28;20316;-63
2023/02/01 10:01:42;;;;;;;68.00;27.47;;;3.80;99.90;;;;;;4175453;28;20677;-64
2023/02/01 10:03:44;;;;;;;66.50;29.67;;;4.00;99.90;;;;;;4177436;28;20298;-69
2023/02/01 10:05:59;;;;;;;59.17;25.50;;;4.00;99.90;;;;;;4179338;28;20316;-65
2023/02/01 10:08:15;;;;;;;48.50;23.17;;;4.10;99.90;;;;;;4180214;28;20648;-63
2023/02/01 10:10:40;;;;;;;27.00;15.77;;;4.10;99.90;;;;;;4179800;28;20263;-63
2023/02/01 10:12:56;;;;;;;16.60;10.57;;;4.00;99.90;;;;;;4180696;28;20320;-65
2023/02/01 10:15:16;;;;;;;13.73;9.77;;;4.00;99.90;;;;;;4179703;28;20315;-65
2023/02/01 10:17:25;;;;;;;14.17;8.70;;;3.90;99.90;;;;;;4180916;28;20258;-62
2023/02/01 10:19:41;;;;;;;16.47;8.87;;;3.80;99.90;;;;;;4179480;28;20258;-63
2023/02/01 10:21:51;;;;;;;16.97;9.93;;;3.80;99.90;;;;;;4180932;28;20316;-65
2023/02/01 10:24:26;;;;;;;15.30;10.25;;;3.70;99.90;;;;;;4179811;28;20305;-62
2023/02/01 10:26:36;;;;;;;14.83;7.67;;;3.50;99.90;;;;;;4180724;28;20029;-62
2023/02/01 10:28:39;;;;;;;10.47;7.53;;;3.40;99.90;;;;;;4179673;28;20266;-64
2023/02/01 10:30:46;;;;;;;10.10;5.47;;;3.30;99.90;;;;;;4180595;28;20604;-62
2023/02/01 10:32:52;;;;;;;8.87;5.13;;;3.20;99.90;;;;;;4178937;28;20324;-64
2023/02/01 10:34:59;;;;;;;6.97;4.60;;;3.10;99.90;;;;;;4180514;28;20298;-63
2023/02/01 10:37:13;;;;;;;7.53;4.90;;;3.10;99.90;;;;;;4179495;28;20274;-64
2023/02/01 10:39:15;;;;;;;7.03;4.80;;;3.00;99.90;;;;;;4180511;28;20270;-65
2023/02/01 10:41:25;;;;;;;8.97;5.20;;;3.00;99.90;;;;;;4178887;28;20347;-62
2023/02/01 10:43:26;;;;;;;6.50;4.00;;;3.10;99.90;;;;;;4179643;28;20286;-63
2023/02/01 10:45:32;;;;;;;6.33;4.57;;;3.20;99.90;;;;;;4178757;28;20351;-63
2023/02/01 10:47:33;;;;;;;8.53;4.70;;;3.30;99.90;;;;;;4180123;28;20332;-63
2023/02/01 10:49:43;;;;;;;10.13;6.47;;;3.40;99.90;;;;;;4178887;28;20649;-63
2023/02/01 10:51:47;;;;;;;10.13;6.10;;;3.50;99.90;;;;;;4180405;28;20328;-65
2023/02/01 10:53:55;;;;;;;15.13;7.73;;;3.60;99.90;;;;;;4178757;28;20025;-63
2023/02/01 10:55:56;;;;;;;9.87;5.93;;;3.70;99.90;;;;;;4179618;28;20266;-64
2023/02/01 10:58:03;;;;;;;6.17;5.03;;;3.80;99.90;;;;;;4177875;28;20352;-63
2023/02/01 11:00:19;;;;;;;10.17;5.93;;;3.90;99.90;;;;;;4179831;28;20262;-62
2023/02/01 11:02:32;;;;;;;3.63;2.97;;;3.80;99.90;;;;;;4178720;28;20680;-62
2023/02/01 11:04:37;;;;;;;6.03;3.80;;;3.80;99.90;;;;;;4179881;28;20327;-67
2023/02/01 11:06:51;;;;;;;4.73;3.30;;;3.80;99.90;;;;;;4178971;28;20694;-65